sensor_id;sensor_type;location;lat;lon;timestamp;temperature;humidity
55203;DHT22;41077;52.956;6.796;2022-12-18T00:01:34;-3.10;99.90
55203;DHT22;41077;52.956;6.796;2022-12-18T00:04:02;-3.10;99.90
55203;DHT22;41077;52.956;6.796;2022-12-18T00:06:32;-3.10;99.90
55203;DHT22;41077;52.956;6.796;2022-12-18T00:08:59;-3.10;99.90
55203;DHT22;41077;52.956;6.796;2022-12-18T00:11:28;-3.10;99.90
55203;DHT22;41077;52.956;6.796;2022-12-18T00:13:55;-3.10;99.90
55203;DHT22;41077;52.956;6.796;2022-12-18T00:16:23;-3.00;99.90
55203;DHT22;41077;52.956;6.796;2022-12-18T00:18:51;-3.00;99.90
55203;DHT22;41077;52.956;6.796;2022-12-18T00:21:18;-3.00;99.90
55203;DHT22;41077;52.956;6.796;2022-12-18T00:23:45;-3.00;99.90
55203;DHT22;41077;52.956;6.796;2022-12-18T00:26:14;-3.00;99.90
55203;DHT22;41077;52.956;6.796;2022-12-18T00:28:43;-3.10;99.90
55203;DHT22;41077;52.956;6.796;2022-12-18T00:31:14;-3.10;99.90
55203;DHT22;41077;52.956;6.796;2022-12-18T00:33:40;-3.10;99.90
55203;DHT22;41077;52.956;6.796;2022-12-18T00:38:38;-3.10;99.90
55203;DHT22;41077;52.956;6.796;2022-12-18T00:41:05;-3.10;99.90
55203;DHT22;41077;52.956;6.796;2022-12-18T00:43:30;-3.10;99.90
55203;DHT22;41077;52.956;6.796;2022-12-18T00:45:59;-3.20;99.90
55203;DHT22;41077;52.956;6.796;2022-12-18T00:48:24;-3.10;99.90
55203;DHT22;41077;52.956;6.796;2022-12-18T00:50:50;-3.10;99.90
55203;DHT22;41077;52.956;6.796;2022-12-18T00:53:16;-3.10;99.90
55203;DHT22;41077;52.956;6.796;2022-12-18T00:55:43;-3.10;99.90
55203;DHT22;41077;52.956;6.796;2022-12-18T00:58:09;-3.10;99.90
55203;DHT22;41077;52.956;6.796;2022-12-18T01:00:36;-3.10;99.90
55203;DHT22;41077;52.956;6.796;2022-12-18T01:03:02;-3.20;99.90
55203;DHT22;41077;52.956;6.796;2022-12-18T01:05:27;-3.20;99.90
55203;DHT22;41077;52.956;6.796;2022-12-18T01:07:54;-3.10;99.90
55203;DHT22;41077;52.956;6.796;2022-12-18T01:10:20;-3.10;99.90
55203;DHT22;41077;52.956;6.796;2022-12-18T01:12:46;-3.10;99.90
55203;DHT22;41077;52.956;6.796;2022-12-18T01:15:13;-3.20;99.90
55203;DHT22;41077;52.956;6.796;2022-12-18T01:17:38;-3.10;99.90
55203;DHT22;41077;52.956;6.796;2022-12-18T01:20:05;-3.20;99.90
55203;DHT22;41077;52.956;6.796;2022-12-18T01:22:31;-3.20;99.90
55203;DHT22;41077;52.956;6.796;2022-12-18T01:24:57;-3.30;99.90
55203;DHT22;41077;52.956;6.796;2022-12-18T01:27:22;-3.20;99.90
55203;DHT22;41077;52.956;6.796;2022-12-18T01:29:49;-3.30;99.90
55203;DHT22;41077;52.956;6.796;2022-12-18T01:32:15;-3.30;99.90
55203;DHT22;41077;52.956;6.796;2022-12-18T01:34:40;-3.30;99.90
55203;DHT22;41077;52.956;6.796;2022-12-18T01:37:06;-3.40;99.90
55203;DHT22;41077;52.956;6.796;2022-12-18T01:39:32;-3.30;99.90
55203;DHT22;41077;52.956;6.796;2022-12-18T01:41:59;-3.40;99.90
55203;DHT22;41077;52.956;6.796;2022-12-18T01:47:24;-3.40;99.90
55203;DHT22;41077;52.956;6.796;2022-12-18T01:49:51;-3.40;99.90
55203;DHT22;41077;52.956;6.796;2022-12-18T01:52:17;-3.40;99.90
55203;DHT22;41077;52.956;6.796;2022-12-18T01:54:44;-3.50;99.90
55203;DHT22;41077;52.956;6.796;2022-12-18T01:57:11;-3.50;99.90
55203;DHT22;41077;52.956;6.796;2022-12-18T01:59:37;-3.50;99.90
55203;DHT22;41077;52.956;6.796;2022-12-18T02:02:03;-3.60;99.90
55203;DHT22;41077;52.956;6.796;2022-12-18T02:04:29;-3.60;99.90
55203;DHT22;41077;52.956;6.796;2022-12-18T02:09:40;-3.70;99.90
55203;DHT22;41077;52.956;6.796;2022-12-18T02:12:16;-3.80;99.90
55203;DHT22;41077;52.956;6.796;2022-12-18T02:14:51;-3.80;99.90
55203;DHT22;41077;52.956;6.796;2022-12-18T02:17:22;-3.80;99.90
55203;DHT22;41077;52.956;6.796;2022-12-18T02:27:47;-3.90;99.90
55203;DHT22;41077;52.956;6.796;2022-12-18T02:30:15;-4.00;99.90
55203;DHT22;41077;52.956;6.796;2022-12-18T02:32:45;-4.00;99.90
55203;DHT22;41077;52.956;6.796;2022-12-18T02:35:16;-4.00;99.90
55203;DHT22;41077;52.956;6.796;2022-12-18T02:37:45;-4.10;99.90
55203;DHT22;41077;52.956;6.796;2022-12-18T02:40:13;-4.10;99.90
55203;DHT22;41077;52.956;6.796;2022-12-18T02:42:40;-4.20;99.90
55203;DHT22;41077;52.956;6.796;2022-12-18T02:45:06;-4.20;99.90
55203;DHT22;41077;52.956;6.796;2022-12-18T02:47:36;-4.20;99.90
55203;DHT22;41077;52.956;6.796;2022-12-18T02:56:11;-4.30;99.90
55203;DHT22;41077;52.956;6.796;2022-12-18T02:59:02;-4.30;99.90
55203;DHT22;41077;52.956;6.796;2022-12-18T03:06:50;-4.40;99.90
55203;DHT22;41077;52.956;6.796;2022-12-18T03:09:26;-4.40;99.90
55203;DHT22;41077;52.956;6.796;2022-12-18T03:11:56;-4.50;99.90
55203;DHT22;41077;52.956;6.796;2022-12-18T03:14:43;-4.50;99.90
55203;DHT22;41077;52.956;6.796;2022-12-18T03:17:13;-4.50;99.90
55203;DHT22;41077;52.956;6.796;2022-12-18T03:19:41;-4.50;99.90
55203;DHT22;41077;52.956;6.796;2022-12-18T03:22:07;-4.60;99.90
55203;DHT22;41077;52.956;6.796;2022-12-18T03:24:34;-4.50;99.90
55203;DHT22;41077;52.956;6.796;2022-12-18T03:27:08;-4.50;99.90
55203;DHT22;41077;52.956;6.796;2022-12-18T03:29:42;-4.50;99.90
55203;DHT22;41077;52.956;6.796;2022-12-18T03:32:18;-4.50;99.90
55203;DHT22;41077;52.956;6.796;2022-12-18T03:34:48;-4.50;99.90
55203;DHT22;41077;52.956;6.796;2022-12-18T03:37:16;-4.60;99.90
55203;DHT22;41077;52.956;6.796;2022-12-18T03:39:42;-4.60;99.90
55203;DHT22;41077;52.956;6.796;2022-12-18T03:44:50;-4.60;99.90
55203;DHT22;41077;52.956;6.796;2022-12-18T03:47:22;-4.60;99.90
55203;DHT22;41077;52.956;6.796;2022-12-18T03:52:33;-4.60;99.90
55203;DHT22;41077;52.956;6.796;2022-12-18T03:55:02;-4.70;99.90
55203;DHT22;41077;52.956;6.796;2022-12-18T03:57:31;-4.70;99.90
55203;DHT22;41077;52.956;6.796;2022-12-18T04:00:11;-4.70;99.90
55203;DHT22;41077;52.956;6.796;2022-12-18T04:02:42;-4.70;99.90
55203;DHT22;41077;52.956;6.796;2022-12-18T04:05:09;-4.70;99.90
55203;DHT22;41077;52.956;6.796;2022-12-18T04:07:36;-4.70;99.90
55203;DHT22;41077;52.956;6.796;2022-12-18T04:10:03;-4.80;99.90
55203;DHT22;41077;52.956;6.796;2022-12-18T04:12:30;-4.80;99.90
55203;DHT22;41077;52.956;6.796;2022-12-18T04:14:56;-4.80;99.90
55203;DHT22;41077;52.956;6.796;2022-12-18T04:17:22;-4.80;99.90
55203;DHT22;41077;52.956;6.796;2022-12-18T04:19:49;-4.80;99.90
55203;DHT22;41077;52.956;6.796;2022-12-18T04:22:15;-4.90;99.90
55203;DHT22;41077;52.956;6.796;2022-12-18T04:24:40;-4.90;99.90
55203;DHT22;41077;52.956;6.796;2022-12-18T04:27:06;-4.90;99.90
55203;DHT22;41077;52.956;6.796;2022-12-18T04:29:32;-4.90;99.90
55203;DHT22;41077;52.956;6.796;2022-12-18T04:31:58;-4.90;99.90
55203;DHT22;41077;52.956;6.796;2022-12-18T04:34:23;-4.90;99.90
55203;DHT22;41077;52.956;6.796;2022-12-18T04:36:49;-5.00;99.90
55203;DHT22;41077;52.956;6.796;2022-12-18T04:39:15;-5.00;99.90
55203;DHT22;41077;52.956;6.796;2022-12-18T04:41:40;-5.00;99.90
55203;DHT22;41077;52.956;6.796;2022-12-18T04:44:06;-5.00;99.90
55203;DHT22;41077;52.956;6.796;2022-12-18T04:46:32;-5.00;99.90
55203;DHT22;41077;52.956;6.796;2022-12-18T04:48:58;-5.10;99.90
55203;DHT22;41077;52.956;6.796;2022-12-18T04:51:23;-5.00;99.90
55203;DHT22;41077;52.956;6.796;2022-12-18T04:53:49;-5.10;99.90
55203;DHT22;41077;52.956;6.796;2022-12-18T04:56:16;-5.10;99.90
55203;DHT22;41077;52.956;6.796;2022-12-18T04:58:43;-5.10;99.90
55203;DHT22;41077;52.956;6.796;2022-12-18T05:01:10;-5.10;99.90
55203;DHT22;41077;52.956;6.796;2022-12-18T05:03:37;-5.10;99.90
55203;DHT22;41077;52.956;6.796;2022-12-18T05:06:03;-5.10;99.90
55203;DHT22;41077;52.956;6.796;2022-12-18T05:08:30;-5.20;99.90
55203;DHT22;41077;52.956;6.796;2022-12-18T05:11:08;-5.20;99.90
55203;DHT22;41077;52.956;6.796;2022-12-18T05:13:34;-5.20;99.90
55203;DHT22;41077;52.956;6.796;2022-12-18T05:16:01;-5.20;99.90
55203;DHT22;41077;52.956;6.796;2022-12-18T05:18:27;-5.30;99.90
55203;DHT22;41077;52.956;6.796;2022-12-18T05:20:53;-5.30;99.90
55203;DHT22;41077;52.956;6.796;2022-12-18T05:23:20;-5.30;99.90
55203;DHT22;41077;52.956;6.796;2022-12-18T05:25:54;-5.30;99.90
55203;DHT22;41077;52.956;6.796;2022-12-18T05:28:20;-5.30;99.90
55203;DHT22;41077;52.956;6.796;2022-12-18T05:30:51;-5.30;99.90
55203;DHT22;41077;52.956;6.796;2022-12-18T05:33:18;-5.40;99.90
55203;DHT22;41077;52.956;6.796;2022-12-18T05:35:49;-5.30;99.90
55203;DHT22;41077;52.956;6.796;2022-12-18T05:38:15;-5.30;99.90
55203;DHT22;41077;52.956;6.796;2022-12-18T05:40:44;-5.30;99.90
55203;DHT22;41077;52.956;6.796;2022-12-18T05:43:10;-5.30;99.90
55203;DHT22;41077;52.956;6.796;2022-12-18T05:45:39;-5.40;99.90
55203;DHT22;41077;52.956;6.796;2022-12-18T05:48:06;-5.30;99.90
55203;DHT22;41077;52.956;6.796;2022-12-18T05:50:36;-5.40;99.90
55203;DHT22;41077;52.956;6.796;2022-12-18T05:53:03;-5.30;99.90
55203;DHT22;41077;52.956;6.796;2022-12-18T05:55:32;-5.30;99.90
55203;DHT22;41077;52.956;6.796;2022-12-18T05:57:58;-5.30;99.90
55203;DHT22;41077;52.956;6.796;2022-12-18T06:00:24;-5.30;99.90
55203;DHT22;41077;52.956;6.796;2022-12-18T06:02:50;-5.40;99.90
55203;DHT22;41077;52.956;6.796;2022-12-18T06:05:15;-5.50;99.90
55203;DHT22;41077;52.956;6.796;2022-12-18T06:07:41;-5.60;99.90
55203;DHT22;41077;52.956;6.796;2022-12-18T06:10:07;-5.70;99.90
55203;DHT22;41077;52.956;6.796;2022-12-18T06:12:33;-5.70;99.90
55203;DHT22;41077;52.956;6.796;2022-12-18T06:15:01;-5.80;99.90
55203;DHT22;41077;52.956;6.796;2022-12-18T06:17:31;-5.90;99.90
55203;DHT22;41077;52.956;6.796;2022-12-18T06:19:57;-5.90;99.90
55203;DHT22;41077;52.956;6.796;2022-12-18T06:22:22;-5.90;99.90
55203;DHT22;41077;52.956;6.796;2022-12-18T06:24:48;-6.00;99.90
55203;DHT22;41077;52.956;6.796;2022-12-18T06:27:14;-6.00;99.90
55203;DHT22;41077;52.956;6.796;2022-12-18T06:29:40;-6.00;99.90
55203;DHT22;41077;52.956;6.796;2022-12-18T06:32:05;-6.00;99.90
55203;DHT22;41077;52.956;6.796;2022-12-18T06:34:32;-6.00;99.90
55203;DHT22;41077;52.956;6.796;2022-12-18T06:36:58;-6.00;99.90
55203;DHT22;41077;52.956;6.796;2022-12-18T06:39:24;-6.10;99.90
55203;DHT22;41077;52.956;6.796;2022-12-18T06:41:50;-6.10;99.90
55203;DHT22;41077;52.956;6.796;2022-12-18T06:44:15;-6.10;99.90
55203;DHT22;41077;52.956;6.796;2022-12-18T06:46:41;-6.10;99.90
55203;DHT22;41077;52.956;6.796;2022-12-18T06:49:07;-6.20;99.90
55203;DHT22;41077;52.956;6.796;2022-12-18T06:51:34;-6.10;99.90
55203;DHT22;41077;52.956;6.796;2022-12-18T06:54:00;-6.20;99.90
55203;DHT22;41077;52.956;6.796;2022-12-18T06:56:25;-6.20;99.90
55203;DHT22;41077;52.956;6.796;2022-12-18T06:58:51;-6.20;99.90
55203;DHT22;41077;52.956;6.796;2022-12-18T07:01:17;-6.20;99.90
55203;DHT22;41077;52.956;6.796;2022-12-18T07:03:43;-6.20;99.90
55203;DHT22;41077;52.956;6.796;2022-12-18T07:06:16;-6.20;99.90
55203;DHT22;41077;52.956;6.796;2022-12-18T07:08:43;-6.30;99.90
55203;DHT22;41077;52.956;6.796;2022-12-18T07:11:09;-6.30;99.90
55203;DHT22;41077;52.956;6.796;2022-12-18T07:13:34;-6.30;99.90
55203;DHT22;41077;52.956;6.796;2022-12-18T07:16:09;-6.30;99.90
55203;DHT22;41077;52.956;6.796;2022-12-18T07:18:35;-6.30;99.90
55203;DHT22;41077;52.956;6.796;2022-12-18T07:21:05;-6.30;99.90
55203;DHT22;41077;52.956;6.796;2022-12-18T07:23:33;-6.40;99.90
55203;DHT22;41077;52.956;6.796;2022-12-18T07:26:04;-6.40;99.90
55203;DHT22;41077;52.956;6.796;2022-12-18T07:28:31;-6.40;99.90
55203;DHT22;41077;52.956;6.796;2022-12-18T07:30:57;-6.40;99.90
55203;DHT22;41077;52.956;6.796;2022-12-18T07:33:24;-6.40;99.90
55203;DHT22;41077;52.956;6.796;2022-12-18T07:35:50;-6.50;99.90
55203;DHT22;41077;52.956;6.796;2022-12-18T07:38:15;-6.40;99.90
55203;DHT22;41077;52.956;6.796;2022-12-18T07:40:41;-6.40;99.90
55203;DHT22;41077;52.956;6.796;2022-12-18T07:43:07;-6.40;99.90
55203;DHT22;41077;52.956;6.796;2022-12-18T07:45:32;-6.40;99.90
55203;DHT22;41077;52.956;6.796;2022-12-18T07:47:58;-6.50;99.90
55203;DHT22;41077;52.956;6.796;2022-12-18T07:50:23;-6.40;99.90
55203;DHT22;41077;52.956;6.796;2022-12-18T07:52:49;-6.40;99.90
55203;DHT22;41077;52.956;6.796;2022-12-18T07:55:15;-6.30;99.90
55203;DHT22;41077;52.956;6.796;2022-12-18T07:57:40;-6.30;99.90
55203;DHT22;41077;52.956;6.796;2022-12-18T08:00:07;-6.30;99.90
55203;DHT22;41077;52.956;6.796;2022-12-18T08:02:33;-6.30;99.90
55203;DHT22;41077;52.956;6.796;2022-12-18T08:04:59;-6.20;99.90
55203;DHT22;41077;52.956;6.796;2022-12-18T08:07:24;-6.20;99.90
55203;DHT22;41077;52.956;6.796;2022-12-18T08:09:50;-6.10;99.90
55203;DHT22;41077;52.956;6.796;2022-12-18T08:12:16;-6.20;99.90
55203;DHT22;41077;52.956;6.796;2022-12-18T08:14:41;-6.10;99.90
55203;DHT22;41077;52.956;6.796;2022-12-18T08:17:07;-6.10;99.90
55203;DHT22;41077;52.956;6.796;2022-12-18T08:19:33;-6.00;99.90
55203;DHT22;41077;52.956;6.796;2022-12-18T08:21:58;-6.00;99.90
55203;DHT22;41077;52.956;6.796;2022-12-18T08:24:24;-5.90;99.90
55203;DHT22;41077;52.956;6.796;2022-12-18T08:26:50;-5.90;99.90
55203;DHT22;41077;52.956;6.796;2022-12-18T08:29:16;-5.80;99.90
55203;DHT22;41077;52.956;6.796;2022-12-18T08:31:41;-5.70;99.90
55203;DHT22;41077;52.956;6.796;2022-12-18T08:34:07;-5.60;99.90
55203;DHT22;41077;52.956;6.796;2022-12-18T08:36:33;-5.60;99.90
55203;DHT22;41077;52.956;6.796;2022-12-18T08:38:59;-5.50;99.90
55203;DHT22;41077;52.956;6.796;2022-12-18T08:41:24;-5.50;99.90
55203;DHT22;41077;52.956;6.796;2022-12-18T08:43:50;-5.40;99.90
55203;DHT22;41077;52.956;6.796;2022-12-18T08:46:40;-5.40;99.90
55203;DHT22;41077;52.956;6.796;2022-12-18T08:49:07;-5.30;99.90
55203;DHT22;41077;52.956;6.796;2022-12-18T08:51:33;-5.30;99.90
55203;DHT22;41077;52.956;6.796;2022-12-18T08:54:00;-5.20;99.90
55203;DHT22;41077;52.956;6.796;2022-12-18T08:56:25;-5.20;99.90
55203;DHT22;41077;52.956;6.796;2022-12-18T08:58:52;-5.20;99.90
55203;DHT22;41077;52.956;6.796;2022-12-18T09:01:25;-5.10;99.90
55203;DHT22;41077;52.956;6.796;2022-12-18T09:03:51;-5.10;99.90
55203;DHT22;41077;52.956;6.796;2022-12-18T09:06:18;-5.00;99.90
55203;DHT22;41077;52.956;6.796;2022-12-18T09:08:44;-5.00;99.90
55203;DHT22;41077;52.956;6.796;2022-12-18T09:11:13;-4.90;99.90
55203;DHT22;41077;52.956;6.796;2022-12-18T09:13:39;-4.90;99.90
55203;DHT22;41077;52.956;6.796;2022-12-18T09:16:05;-4.80;99.90
55203;DHT22;41077;52.956;6.796;2022-12-18T09:18:31;-4.70;99.90
55203;DHT22;41077;52.956;6.796;2022-12-18T09:20:56;-4.70;99.90
55203;DHT22;41077;52.956;6.796;2022-12-18T09:23:22;-4.60;99.90
55203;DHT22;41077;52.956;6.796;2022-12-18T09:25:48;-4.50;99.90
55203;DHT22;41077;52.956;6.796;2022-12-18T09:28:16;-4.50;99.90
55203;DHT22;41077;52.956;6.796;2022-12-18T09:30:44;-4.40;99.90
55203;DHT22;41077;52.956;6.796;2022-12-18T09:33:11;-4.30;99.90
55203;DHT22;41077;52.956;6.796;2022-12-18T09:35:37;-4.30;99.90
55203;DHT22;41077;52.956;6.796;2022-12-18T09:38:03;-4.20;99.90
55203;DHT22;41077;52.956;6.796;2022-12-18T09:40:36;-4.10;99.90
55203;DHT22;41077;52.956;6.796;2022-12-18T09:43:06;-4.00;99.90
55203;DHT22;41077;52.956;6.796;2022-12-18T09:45:42;-3.90;99.90
55203;DHT22;41077;52.956;6.796;2022-12-18T09:48:30;-3.90;99.90
55203;DHT22;41077;52.956;6.796;2022-12-18T09:51:14;-3.70;99.90
55203;DHT22;41077;52.956;6.796;2022-12-18T09:53:41;-3.70;99.90
55203;DHT22;41077;52.956;6.796;2022-12-18T09:56:14;-3.60;99.90
55203;DHT22;41077;52.956;6.796;2022-12-18T09:58:52;-3.50;99.90
55203;DHT22;41077;52.956;6.796;2022-12-18T10:01:23;-3.40;99.90
55203;DHT22;41077;52.956;6.796;2022-12-18T10:03:50;-3.30;99.90
55203;DHT22;41077;52.956;6.796;2022-12-18T10:09:32;-3.30;99.90
55203;DHT22;41077;52.956;6.796;2022-12-18T10:14:36;-3.20;99.90
55203;DHT22;41077;52.956;6.796;2022-12-18T10:22:53;-3.10;99.90
55203;DHT22;41077;52.956;6.796;2022-12-18T10:25:35;-3.10;99.90
55203;DHT22;41077;52.956;6.796;2022-12-18T10:28:13;-3.10;99.90
55203;DHT22;41077;52.956;6.796;2022-12-18T10:30:40;-3.10;99.90
55203;DHT22;41077;52.956;6.796;2022-12-18T10:33:13;-3.10;99.90
55203;DHT22;41077;52.956;6.796;2022-12-18T10:35:41;-3.10;99.90
55203;DHT22;41077;52.956;6.796;2022-12-18T10:43:31;-3.00;99.90
55203;DHT22;41077;52.956;6.796;2022-12-18T10:51:39;-2.80;99.90
55203;DHT22;41077;52.956;6.796;2022-12-18T10:54:06;-2.80;99.90
55203;DHT22;41077;52.956;6.796;2022-12-18T10:56:35;-2.80;99.90
55203;DHT22;41077;52.956;6.796;2022-12-18T10:59:03;-2.70;99.90
55203;DHT22;41077;52.956;6.796;2022-12-18T11:02:07;-2.70;99.90
55203;DHT22;41077;52.956;6.796;2022-12-18T11:04:52;-2.60;99.90
55203;DHT22;41077;52.956;6.796;2022-12-18T11:07:18;-2.60;99.90
55203;DHT22;41077;52.956;6.796;2022-12-18T11:09:44;-2.50;99.90
55203;DHT22;41077;52.956;6.796;2022-12-18T11:12:24;-2.50;99.90
55203;DHT22;41077;52.956;6.796;2022-12-18T11:14:54;-2.50;99.90
55203;DHT22;41077;52.956;6.796;2022-12-18T11:17:34;-2.40;99.90
55203;DHT22;41077;52.956;6.796;2022-12-18T11:20:32;-2.40;99.90
55203;DHT22;41077;52.956;6.796;2022-12-18T11:23:12;-2.30;99.90
55203;DHT22;41077;52.956;6.796;2022-12-18T11:25:38;-2.30;99.90
55203;DHT22;41077;52.956;6.796;2022-12-18T11:28:25;-2.20;99.90
55203;DHT22;41077;52.956;6.796;2022-12-18T11:33:34;-2.10;99.90
55203;DHT22;41077;52.956;6.796;2022-12-18T11:36:02;-2.10;99.90
55203;DHT22;41077;52.956;6.796;2022-12-18T11:41:07;-2.00;99.90
55203;DHT22;41077;52.956;6.796;2022-12-18T11:46:19;-1.90;99.90
55203;DHT22;41077;52.956;6.796;2022-12-18T11:49:25;-1.80;99.90
55203;DHT22;41077;52.956;6.796;2022-12-18T11:52:04;-1.80;99.90
55203;DHT22;41077;52.956;6.796;2022-12-18T11:54:34;-1.70;99.90
55203;DHT22;41077;52.956;6.796;2022-12-18T12:00:03;-1.70;99.90
55203;DHT22;41077;52.956;6.796;2022-12-18T12:02:37;-1.70;99.90
55203;DHT22;41077;52.956;6.796;2022-12-18T12:05:18;-1.60;99.90
55203;DHT22;41077;52.956;6.796;2022-12-18T12:16:25;-1.50;99.90
55203;DHT22;41077;52.956;6.796;2022-12-18T12:21:42;-1.40;99.90
55203;DHT22;41077;52.956;6.796;2022-12-18T12:26:59;-1.30;99.90
55203;DHT22;41077;52.956;6.796;2022-12-18T12:40:02;-1.20;99.90
55203;DHT22;41077;52.956;6.796;2022-12-18T12:42:32;-1.20;99.90
55203;DHT22;41077;52.956;6.796;2022-12-18T12:45:28;-1.10;99.90
55203;DHT22;41077;52.956;6.796;2022-12-18T12:47:57;-1.10;99.90
55203;DHT22;41077;52.956;6.796;2022-12-18T12:50:24;-1.10;99.90
55203;DHT22;41077;52.956;6.796;2022-12-18T12:52:55;-1.10;99.90
55203;DHT22;41077;52.956;6.796;2022-12-18T12:55:26;-1.10;99.90
55203;DHT22;41077;52.956;6.796;2022-12-18T13:00:46;-1.00;99.90
55203;DHT22;41077;52.956;6.796;2022-12-18T13:06:43;-0.90;99.90
55203;DHT22;41077;52.956;6.796;2022-12-18T13:09:12;-0.90;99.90
55203;DHT22;41077;52.956;6.796;2022-12-18T13:11:45;-0.90;99.90
55203;DHT22;41077;52.956;6.796;2022-12-18T13:14:38;-0.90;99.90
55203;DHT22;41077;52.956;6.796;2022-12-18T13:20:02;-0.80;99.90
55203;DHT22;41077;52.956;6.796;2022-12-18T13:22:34;-0.80;99.90
55203;DHT22;41077;52.956;6.796;2022-12-18T13:25:00;-0.80;99.90
55203;DHT22;41077;52.956;6.796;2022-12-18T13:28:16;-0.80;99.90
55203;DHT22;41077;52.956;6.796;2022-12-18T13:30:43;-0.80;99.90
55203;DHT22;41077;52.956;6.796;2022-12-18T13:41:26;-0.80;99.90
55203;DHT22;41077;52.956;6.796;2022-12-18T13:43:54;-0.80;99.90
55203;DHT22;41077;52.956;6.796;2022-12-18T13:46:44;-0.80;99.90
55203;DHT22;41077;52.956;6.796;2022-12-18T13:51:50;-0.80;99.90
55203;DHT22;41077;52.956;6.796;2022-12-18T13:56:54;-0.80;99.90
55203;DHT22;41077;52.956;6.796;2022-12-18T13:59:34;-0.80;99.90
55203;DHT22;41077;52.956;6.796;2022-12-18T14:02:11;-0.80;99.90
55203;DHT22;41077;52.956;6.796;2022-12-18T14:04:38;-0.80;99.90
55203;DHT22;41077;52.956;6.796;2022-12-18T14:07:12;-0.80;99.90
55203;DHT22;41077;52.956;6.796;2022-12-18T14:09:47;-0.80;99.90
55203;DHT22;41077;52.956;6.796;2022-12-18T14:12:17;-0.80;99.90
55203;DHT22;41077;52.956;6.796;2022-12-18T14:15:03;-0.80;99.90
55203;DHT22;41077;52.956;6.796;2022-12-18T14:17:31;-0.90;99.90
55203;DHT22;41077;52.956;6.796;2022-12-18T14:19:57;-0.90;99.90
55203;DHT22;41077;52.956;6.796;2022-12-18T14:22:26;-0.90;99.90
55203;DHT22;41077;52.956;6.796;2022-12-18T14:25:28;-1.00;99.90
55203;DHT22;41077;52.956;6.796;2022-12-18T14:28:13;-1.00;99.90
55203;DHT22;41077;52.956;6.796;2022-12-18T14:30:41;-1.10;99.90
55203;DHT22;41077;52.956;6.796;2022-12-18T14:33:12;-1.10;99.90
55203;DHT22;41077;52.956;6.796;2022-12-18T14:35:51;-1.10;99.90
55203;DHT22;41077;52.956;6.796;2022-12-18T14:38:32;-1.20;99.90
55203;DHT22;41077;52.956;6.796;2022-12-18T14:41:06;-1.20;99.90
55203;DHT22;41077;52.956;6.796;2022-12-18T14:43:37;-1.20;99.90
55203;DHT22;41077;52.956;6.796;2022-12-18T14:46:33;-1.20;99.90
55203;DHT22;41077;52.956;6.796;2022-12-18T14:49:04;-1.30;99.90
55203;DHT22;41077;52.956;6.796;2022-12-18T14:51:32;-1.30;99.90
55203;DHT22;41077;52.956;6.796;2022-12-18T14:54:03;-1.30;99.90
55203;DHT22;41077;52.956;6.796;2022-12-18T14:56:35;-1.30;99.90
55203;DHT22;41077;52.956;6.796;2022-12-18T14:59:22;-1.30;99.90
55203;DHT22;41077;52.956;6.796;2022-12-18T15:07:11;-1.40;99.90
55203;DHT22;41077;52.956;6.796;2022-12-18T15:09:39;-1.40;99.90
55203;DHT22;41077;52.956;6.796;2022-12-18T15:12:05;-1.40;99.90
55203;DHT22;41077;52.956;6.796;2022-12-18T15:14:43;-1.40;99.90
55203;DHT22;41077;52.956;6.796;2022-12-18T15:17:22;-1.40;99.90
55203;DHT22;41077;52.956;6.796;2022-12-18T15:19:51;-1.40;99.90
55203;DHT22;41077;52.956;6.796;2022-12-18T15:22:20;-1.40;99.90
55203;DHT22;41077;52.956;6.796;2022-12-18T15:24:47;-1.40;99.90
55203;DHT22;41077;52.956;6.796;2022-12-18T15:27:28;-1.40;99.90
55203;DHT22;41077;52.956;6.796;2022-12-18T15:30:21;-1.40;99.90
55203;DHT22;41077;52.956;6.796;2022-12-18T15:32:47;-1.40;99.90
55203;DHT22;41077;52.956;6.796;2022-12-18T15:35:18;-1.50;99.90
55203;DHT22;41077;52.956;6.796;2022-12-18T15:37:45;-1.40;99.90
55203;DHT22;41077;52.956;6.796;2022-12-18T15:40:19;-1.40;99.90
55203;DHT22;41077;52.956;6.796;2022-12-18T15:42:45;-1.50;99.90
55203;DHT22;41077;52.956;6.796;2022-12-18T15:45:30;-1.50;99.90
55203;DHT22;41077;52.956;6.796;2022-12-18T15:47:56;-1.40;99.90
55203;DHT22;41077;52.956;6.796;2022-12-18T15:50:22;-1.50;99.90
55203;DHT22;41077;52.956;6.796;2022-12-18T15:52:49;-1.40;99.90
55203;DHT22;41077;52.956;6.796;2022-12-18T15:55:21;-1.50;99.90
55203;DHT22;41077;52.956;6.796;2022-12-18T15:58:07;-1.40;99.90
55203;DHT22;41077;52.956;6.796;2022-12-18T16:00:34;-1.40;99.90
55203;DHT22;41077;52.956;6.796;2022-12-18T16:03:00;-1.50;99.90
55203;DHT22;41077;52.956;6.796;2022-12-18T16:05:27;-1.50;99.90
55203;DHT22;41077;52.956;6.796;2022-12-18T16:07:53;-1.40;99.90
55203;DHT22;41077;52.956;6.796;2022-12-18T16:10:19;-1.50;99.90
55203;DHT22;41077;52.956;6.796;2022-12-18T16:12:45;-1.40;99.90
55203;DHT22;41077;52.956;6.796;2022-12-18T16:15:15;-1.50;99.90
55203;DHT22;41077;52.956;6.796;2022-12-18T16:17:42;-1.40;99.90
55203;DHT22;41077;52.956;6.796;2022-12-18T16:20:16;-1.40;99.90
55203;DHT22;41077;52.956;6.796;2022-12-18T16:22:43;-1.40;99.90
55203;DHT22;41077;52.956;6.796;2022-12-18T16:25:26;-1.40;99.90
55203;DHT22;41077;52.956;6.796;2022-12-18T16:27:53;-1.40;99.90
55203;DHT22;41077;52.956;6.796;2022-12-18T16:30:25;-1.40;99.90
55203;DHT22;41077;52.956;6.796;2022-12-18T16:32:53;-1.40;99.90
55203;DHT22;41077;52.956;6.796;2022-12-18T16:35:20;-1.40;99.90
55203;DHT22;41077;52.956;6.796;2022-12-18T16:37:46;-1.40;99.90
55203;DHT22;41077;52.956;6.796;2022-12-18T16:40:15;-1.40;99.90
55203;DHT22;41077;52.956;6.796;2022-12-18T16:42:43;-1.40;99.90
55203;DHT22;41077;52.956;6.796;2022-12-18T16:45:12;-1.30;99.90
55203;DHT22;41077;52.956;6.796;2022-12-18T16:47:38;-1.30;99.90
55203;DHT22;41077;52.956;6.796;2022-12-18T16:50:04;-1.30;99.90
55203;DHT22;41077;52.956;6.796;2022-12-18T16:52:30;-1.30;99.90
55203;DHT22;41077;52.956;6.796;2022-12-18T16:54:56;-1.30;99.90
55203;DHT22;41077;52.956;6.796;2022-12-18T16:57:22;-1.30;99.90
55203;DHT22;41077;52.956;6.796;2022-12-18T16:59:48;-1.30;99.90
55203;DHT22;41077;52.956;6.796;2022-12-18T17:02:25;-1.30;99.90
55203;DHT22;41077;52.956;6.796;2022-12-18T17:04:55;-1.30;99.90
55203;DHT22;41077;52.956;6.796;2022-12-18T17:07:22;-1.30;99.90
55203;DHT22;41077;52.956;6.796;2022-12-18T17:09:47;-1.30;99.90
55203;DHT22;41077;52.956;6.796;2022-12-18T17:12:14;-1.20;99.90
55203;DHT22;41077;52.956;6.796;2022-12-18T17:14:40;-1.20;99.90
55203;DHT22;41077;52.956;6.796;2022-12-18T17:17:06;-1.20;99.90
55203;DHT22;41077;52.956;6.796;2022-12-18T17:19:32;-1.20;99.90
55203;DHT22;41077;52.956;6.796;2022-12-18T17:21:57;-1.10;99.90
55203;DHT22;41077;52.956;6.796;2022-12-18T17:24:23;-1.10;99.90
55203;DHT22;41077;52.956;6.796;2022-12-18T17:26:49;-1.10;99.90
55203;DHT22;41077;52.956;6.796;2022-12-18T17:29:17;-1.00;99.90
55203;DHT22;41077;52.956;6.796;2022-12-18T17:31:44;-1.00;99.90
55203;DHT22;41077;52.956;6.796;2022-12-18T17:34:10;-1.00;99.90
55203;DHT22;41077;52.956;6.796;2022-12-18T17:36:37;-1.00;99.90
55203;DHT22;41077;52.956;6.796;2022-12-18T17:39:04;-1.00;99.90
55203;DHT22;41077;52.956;6.796;2022-12-18T17:41:30;-0.90;99.90
55203;DHT22;41077;52.956;6.796;2022-12-18T17:43:58;-0.90;99.90